Great Village, Canada
Current Conditions -  °F | °C
As of 10:00 PM on Sunday 25 Jan 2015 (Local Time) from CYHZ Reporting Station
Broken Clouds Broken Clouds  
Wind Chill:   Ceiling: 2900
Heat Index: 23°   Visibility: 15mi
Dew Point: 12°   Wind: 22mph
Humidity: 63%   Direction: 280°W
Pressure: 29.56"   Gusts: 30mph
Location:  45.42°N, 63.6°W
Report Text: CYHZ 260200Z 28019G26KT 15SM BKN029 M05/M11 A2956 RMK SC5 PRESRR SLP015
Loading
Personal Weather Stations






























Interactive Weather Map New forecast layout! Learn more

10-Day Weather Forecast

Advertisements
Track Severe Weather on mobile